sensor_id;sensor_type;location;lat;lon;timestamp;temperature;humidity
32694;DHT22;19084;44.716;10.218;2022-11-20T00:02:15;9.80;99.90
32694;DHT22;19084;44.716;10.218;2022-11-20T00:04:48;9.70;99.90
32694;DHT22;19084;44.716;10.218;2022-11-20T00:07:20;9.70;99.90
32694;DHT22;19084;44.716;10.218;2022-11-20T00:09:53;9.70;99.90
32694;DHT22;19084;44.716;10.218;2022-11-20T00:12:26;9.70;99.90
32694;DHT22;19084;44.716;10.218;2022-11-20T00:14:58;9.60;99.90
32694;DHT22;19084;44.716;10.218;2022-11-20T00:17:31;9.60;99.90
32694;DHT22;19084;44.716;10.218;2022-11-20T00:20:04;9.60;99.90
32694;DHT22;19084;44.716;10.218;2022-11-20T00:22:37;9.60;99.90
32694;DHT22;19084;44.716;10.218;2022-11-20T00:25:10;9.60;99.90
32694;DHT22;19084;44.716;10.218;2022-11-20T00:27:43;9.60;99.90
32694;DHT22;19084;44.716;10.218;2022-11-20T00:30:16;9.60;99.90
32694;DHT22;19084;44.716;10.218;2022-11-20T00:32:49;9.60;99.90
32694;DHT22;19084;44.716;10.218;2022-11-20T00:35:22;9.60;99.90
32694;DHT22;19084;44.716;10.218;2022-11-20T00:37:55;9.60;99.90
32694;DHT22;19084;44.716;10.218;2022-11-20T00:40:27;9.60;99.90
32694;DHT22;19084;44.716;10.218;2022-11-20T00:43:00;9.60;99.90
32694;DHT22;19084;44.716;10.218;2022-11-20T00:45:33;9.60;99.90
32694;DHT22;19084;44.716;10.218;2022-11-20T00:48:06;9.60;99.90
32694;DHT22;19084;44.716;10.218;2022-11-20T00:50:39;9.60;99.90
32694;DHT22;19084;44.716;10.218;2022-11-20T00:53:14;9.60;99.90
32694;DHT22;19084;44.716;10.218;2022-11-20T00:55:56;9.60;99.90
32694;DHT22;19084;44.716;10.218;2022-11-20T00:58:32;9.60;99.90
32694;DHT22;19084;44.716;10.218;2022-11-20T01:01:10;9.60;99.90
32694;DHT22;19084;44.716;10.218;2022-11-20T01:03:45;9.50;99.90
32694;DHT22;19084;44.716;10.218;2022-11-20T01:06:21;9.50;99.90
32694;DHT22;19084;44.716;10.218;2022-11-20T01:08:57;9.50;99.90
32694;DHT22;19084;44.716;10.218;2022-11-20T01:11:32;9.50;99.90
32694;DHT22;19084;44.716;10.218;2022-11-20T01:14:09;9.40;99.90
32694;DHT22;19084;44.716;10.218;2022-11-20T01:16:46;9.40;99.90
32694;DHT22;19084;44.716;10.218;2022-11-20T01:19:21;9.40;99.90
32694;DHT22;19084;44.716;10.218;2022-11-20T01:21:55;9.40;99.90
32694;DHT22;19084;44.716;10.218;2022-11-20T01:24:28;9.40;99.90
32694;DHT22;19084;44.716;10.218;2022-11-20T01:27:01;9.40;99.90
32694;DHT22;19084;44.716;10.218;2022-11-20T01:29:33;9.40;99.90
32694;DHT22;19084;44.716;10.218;2022-11-20T01:32:06;9.40;99.90
32694;DHT22;19084;44.716;10.218;2022-11-20T01:34:38;9.30;99.90
32694;DHT22;19084;44.716;10.218;2022-11-20T01:37:11;9.30;99.90
32694;DHT22;19084;44.716;10.218;2022-11-20T01:39:44;9.30;99.90
32694;DHT22;19084;44.716;10.218;2022-11-20T01:42:17;9.30;99.90
32694;DHT22;19084;44.716;10.218;2022-11-20T01:48:09;9.30;99.90
32694;DHT22;19084;44.716;10.218;2022-11-20T01:50:42;9.30;99.90
32694;DHT22;19084;44.716;10.218;2022-11-20T01:53:17;9.30;99.90
32694;DHT22;19084;44.716;10.218;2022-11-20T01:55:54;9.30;99.90
32694;DHT22;19084;44.716;10.218;2022-11-20T01:58:32;9.30;99.90
32694;DHT22;19084;44.716;10.218;2022-11-20T02:01:06;9.20;99.90
32694;DHT22;19084;44.716;10.218;2022-11-20T02:03:39;9.30;99.90
32694;DHT22;19084;44.716;10.218;2022-11-20T02:09:01;9.20;99.90
32694;DHT22;19084;44.716;10.218;2022-11-20T02:11:33;9.20;99.90
32694;DHT22;19084;44.716;10.218;2022-11-20T02:14:06;9.20;99.90
32694;DHT22;19084;44.716;10.218;2022-11-20T02:16:44;9.20;99.90
32694;DHT22;19084;44.716;10.218;2022-11-20T02:19:27;9.20;99.90
32694;DHT22;19084;44.716;10.218;2022-11-20T02:22:05;9.20;99.90
32694;DHT22;19084;44.716;10.218;2022-11-20T02:24:41;9.10;99.90
32694;DHT22;19084;44.716;10.218;2022-11-20T02:27:17;9.10;99.90
32694;DHT22;19084;44.716;10.218;2022-11-20T02:29:52;9.10;99.90
32694;DHT22;19084;44.716;10.218;2022-11-20T02:32:28;9.10;99.90
32694;DHT22;19084;44.716;10.218;2022-11-20T02:35:38;9.00;99.90
32694;DHT22;19084;44.716;10.218;2022-11-20T02:38:02;9.00;99.90
32694;DHT22;19084;44.716;10.218;2022-11-20T02:40:35;9.00;99.90
32694;DHT22;19084;44.716;10.218;2022-11-20T02:43:08;9.00;99.90
32694;DHT22;19084;44.716;10.218;2022-11-20T02:45:41;8.90;99.90
32694;DHT22;19084;44.716;10.218;2022-11-20T02:48:14;8.90;99.90
32694;DHT22;19084;44.716;10.218;2022-11-20T02:50:47;8.90;99.90
32694;DHT22;19084;44.716;10.218;2022-11-20T02:53:19;8.90;99.90
32694;DHT22;19084;44.716;10.218;2022-11-20T02:55:52;8.90;99.90
32694;DHT22;19084;44.716;10.218;2022-11-20T02:58:25;8.80;99.90
32694;DHT22;19084;44.716;10.218;2022-11-20T03:00:57;8.80;99.90
32694;DHT22;19084;44.716;10.218;2022-11-20T03:03:30;8.80;99.90
32694;DHT22;19084;44.716;10.218;2022-11-20T03:06:03;8.80;99.90
32694;DHT22;19084;44.716;10.218;2022-11-20T03:08:36;8.70;99.90
32694;DHT22;19084;44.716;10.218;2022-11-20T03:11:09;8.70;99.90
32694;DHT22;19084;44.716;10.218;2022-11-20T03:13:42;8.70;99.90
32694;DHT22;19084;44.716;10.218;2022-11-20T03:16:17;8.60;99.90
32694;DHT22;19084;44.716;10.218;2022-11-20T03:18:52;8.60;99.90
32694;DHT22;19084;44.716;10.218;2022-11-20T03:21:26;8.60;99.90
32694;DHT22;19084;44.716;10.218;2022-11-20T03:23:59;8.60;99.90
32694;DHT22;19084;44.716;10.218;2022-11-20T03:26:32;8.50;99.90
32694;DHT22;19084;44.716;10.218;2022-11-20T03:29:05;8.50;99.90
32694;DHT22;19084;44.716;10.218;2022-11-20T03:31:40;8.40;99.90
32694;DHT22;19084;44.716;10.218;2022-11-20T03:34:13;8.30;99.90
32694;DHT22;19084;44.716;10.218;2022-11-20T03:36:45;8.30;99.90
32694;DHT22;19084;44.716;10.218;2022-11-20T03:39:18;8.20;99.90
32694;DHT22;19084;44.716;10.218;2022-11-20T03:41:51;8.20;99.90
32694;DHT22;19084;44.716;10.218;2022-11-20T03:44:24;8.20;99.90
32694;DHT22;19084;44.716;10.218;2022-11-20T03:46:57;8.20;99.90
32694;DHT22;19084;44.716;10.218;2022-11-20T03:49:29;8.20;99.90
32694;DHT22;19084;44.716;10.218;2022-11-20T03:52:02;8.20;99.90
32694;DHT22;19084;44.716;10.218;2022-11-20T03:54:35;8.20;99.90
32694;DHT22;19084;44.716;10.218;2022-11-20T03:57:08;8.20;99.90
32694;DHT22;19084;44.716;10.218;2022-11-20T03:59:40;8.30;99.90
32694;DHT22;19084;44.716;10.218;2022-11-20T04:02:13;8.30;99.90
32694;DHT22;19084;44.716;10.218;2022-11-20T04:04:46;8.30;99.90
32694;DHT22;19084;44.716;10.218;2022-11-20T04:07:18;8.20;99.90
32694;DHT22;19084;44.716;10.218;2022-11-20T04:09:51;8.30;99.90
32694;DHT22;19084;44.716;10.218;2022-11-20T04:12:24;8.30;99.90
32694;DHT22;19084;44.716;10.218;2022-11-20T04:14:57;8.20;99.90
32694;DHT22;19084;44.716;10.218;2022-11-20T04:17:29;8.30;99.90
32694;DHT22;19084;44.716;10.218;2022-11-20T04:20:03;8.30;99.90
32694;DHT22;19084;44.716;10.218;2022-11-20T04:22:36;8.30;99.90
32694;DHT22;19084;44.716;10.218;2022-11-20T04:25:08;8.20;99.90
32694;DHT22;19084;44.716;10.218;2022-11-20T04:27:41;8.20;99.90
32694;DHT22;19084;44.716;10.218;2022-11-20T04:30:14;8.20;99.90
32694;DHT22;19084;44.716;10.218;2022-11-20T04:32:47;8.20;99.90
32694;DHT22;19084;44.716;10.218;2022-11-20T04:35:19;8.20;99.90
32694;DHT22;19084;44.716;10.218;2022-11-20T04:37:52;8.20;99.90
32694;DHT22;19084;44.716;10.218;2022-11-20T04:40:25;8.20;99.90
32694;DHT22;19084;44.716;10.218;2022-11-20T04:42:58;8.20;99.90
32694;DHT22;19084;44.716;10.218;2022-11-20T04:45:30;8.20;99.90
32694;DHT22;19084;44.716;10.218;2022-11-20T04:48:03;9.40;99.90
32694;DHT22;19084;44.716;10.218;2022-11-20T04:50:40;8.20;99.90
32694;DHT22;19084;44.716;10.218;2022-11-20T04:53:13;8.30;99.90
32694;DHT22;19084;44.716;10.218;2022-11-20T04:55:45;8.20;99.90
32694;DHT22;19084;44.716;10.218;2022-11-20T04:58:18;8.20;99.90
32694;DHT22;19084;44.716;10.218;2022-11-20T05:00:51;8.10;99.90
32694;DHT22;19084;44.716;10.218;2022-11-20T05:03:24;8.10;99.90
32694;DHT22;19084;44.716;10.218;2022-11-20T05:05:59;8.00;99.90
32694;DHT22;19084;44.716;10.218;2022-11-20T05:08:33;7.90;99.90
32694;DHT22;19084;44.716;10.218;2022-11-20T05:11:08;7.90;99.90
32694;DHT22;19084;44.716;10.218;2022-11-20T05:13:41;7.90;99.90
32694;DHT22;19084;44.716;10.218;2022-11-20T05:16:18;7.80;99.90
32694;DHT22;19084;44.716;10.218;2022-11-20T05:18:53;7.90;99.90
32694;DHT22;19084;44.716;10.218;2022-11-20T05:21:26;7.80;99.90
32694;DHT22;19084;44.716;10.218;2022-11-20T05:23:59;7.90;99.90
32694;DHT22;19084;44.716;10.218;2022-11-20T05:26:32;7.80;99.90
32694;DHT22;19084;44.716;10.218;2022-11-20T05:29:04;7.90;99.90
32694;DHT22;19084;44.716;10.218;2022-11-20T05:31:40;7.90;99.90
32694;DHT22;19084;44.716;10.218;2022-11-20T05:34:13;7.90;99.90
32694;DHT22;19084;44.716;10.218;2022-11-20T05:36:46;7.90;99.90
32694;DHT22;19084;44.716;10.218;2022-11-20T05:39:18;7.80;99.90
32694;DHT22;19084;44.716;10.218;2022-11-20T05:41:51;7.80;99.90
32694;DHT22;19084;44.716;10.218;2022-11-20T05:44:44;7.80;99.90
32694;DHT22;19084;44.716;10.218;2022-11-20T05:47:16;7.80;99.90
32694;DHT22;19084;44.716;10.218;2022-11-20T05:49:49;7.80;99.90
32694;DHT22;19084;44.716;10.218;2022-11-20T05:52:22;7.70;99.90
32694;DHT22;19084;44.716;10.218;2022-11-20T05:54:54;7.70;99.90
32694;DHT22;19084;44.716;10.218;2022-11-20T05:57:27;7.70;99.90
32694;DHT22;19084;44.716;10.218;2022-11-20T06:00:00;7.70;99.90
32694;DHT22;19084;44.716;10.218;2022-11-20T06:02:35;7.70;99.90
32694;DHT22;19084;44.716;10.218;2022-11-20T06:05:08;7.60;99.90
32694;DHT22;19084;44.716;10.218;2022-11-20T06:07:41;7.60;99.90
32694;DHT22;19084;44.716;10.218;2022-11-20T06:10:14;7.60;99.90
32694;DHT22;19084;44.716;10.218;2022-11-20T06:12:47;7.60;99.90
32694;DHT22;19084;44.716;10.218;2022-11-20T06:15:20;7.50;99.90
32694;DHT22;19084;44.716;10.218;2022-11-20T06:17:53;7.50;99.90
32694;DHT22;19084;44.716;10.218;2022-11-20T06:20:26;7.50;99.90
32694;DHT22;19084;44.716;10.218;2022-11-20T06:22:59;7.50;99.90
32694;DHT22;19084;44.716;10.218;2022-11-20T06:25:31;7.40;99.90
32694;DHT22;19084;44.716;10.218;2022-11-20T06:28:04;7.40;99.90
32694;DHT22;19084;44.716;10.218;2022-11-20T06:30:37;7.40;99.90
32694;DHT22;19084;44.716;10.218;2022-11-20T06:33:10;7.40;99.90
32694;DHT22;19084;44.716;10.218;2022-11-20T06:35:42;7.30;99.90
32694;DHT22;19084;44.716;10.218;2022-11-20T06:38:15;7.40;99.90
32694;DHT22;19084;44.716;10.218;2022-11-20T06:40:48;7.30;99.90
32694;DHT22;19084;44.716;10.218;2022-11-20T06:43:21;7.30;99.90
32694;DHT22;19084;44.716;10.218;2022-11-20T06:45:55;7.30;99.90
32694;DHT22;19084;44.716;10.218;2022-11-20T06:48:28;7.40;99.90
32694;DHT22;19084;44.716;10.218;2022-11-20T06:51:04;7.40;99.90
32694;DHT22;19084;44.716;10.218;2022-11-20T06:53:37;7.40;99.90
32694;DHT22;19084;44.716;10.218;2022-11-20T06:56:10;7.40;99.90
32694;DHT22;19084;44.716;10.218;2022-11-20T06:58:43;7.40;99.90
32694;DHT22;19084;44.716;10.218;2022-11-20T07:01:15;7.40;99.90
32694;DHT22;19084;44.716;10.218;2022-11-20T07:03:49;7.40;99.90
32694;DHT22;19084;44.716;10.218;2022-11-20T07:06:25;7.40;99.90
32694;DHT22;19084;44.716;10.218;2022-11-20T07:08:58;7.40;99.90
32694;DHT22;19084;44.716;10.218;2022-11-20T07:11:31;7.40;99.90
32694;DHT22;19084;44.716;10.218;2022-11-20T07:14:04;7.40;99.90
32694;DHT22;19084;44.716;10.218;2022-11-20T07:16:37;7.40;99.90
32694;DHT22;19084;44.716;10.218;2022-11-20T07:19:09;7.40;99.90
32694;DHT22;19084;44.716;10.218;2022-11-20T07:21:42;7.50;99.90
32694;DHT22;19084;44.716;10.218;2022-11-20T07:24:15;7.50;99.90
32694;DHT22;19084;44.716;10.218;2022-11-20T07:26:48;7.60;99.90
32694;DHT22;19084;44.716;10.218;2022-11-20T07:29:22;7.60;99.90
32694;DHT22;19084;44.716;10.218;2022-11-20T07:31:55;7.60;99.90
32694;DHT22;19084;44.716;10.218;2022-11-20T07:34:28;7.70;99.90
32694;DHT22;19084;44.716;10.218;2022-11-20T07:37:01;7.80;99.90
32694;DHT22;19084;44.716;10.218;2022-11-20T07:39:42;7.80;99.90
32694;DHT22;19084;44.716;10.218;2022-11-20T07:42:14;7.80;99.90
32694;DHT22;19084;44.716;10.218;2022-11-20T07:44:47;7.90;99.90
32694;DHT22;19084;44.716;10.218;2022-11-20T07:47:20;7.90;99.90
32694;DHT22;19084;44.716;10.218;2022-11-20T07:49:53;8.00;99.90
32694;DHT22;19084;44.716;10.218;2022-11-20T07:52:25;8.00;99.90
32694;DHT22;19084;44.716;10.218;2022-11-20T07:54:58;8.00;99.90
32694;DHT22;19084;44.716;10.218;2022-11-20T07:57:31;8.10;99.90
32694;DHT22;19084;44.716;10.218;2022-11-20T08:00:05;8.10;99.90
32694;DHT22;19084;44.716;10.218;2022-11-20T08:02:44;8.10;99.90
32694;DHT22;19084;44.716;10.218;2022-11-20T08:05:17;8.10;99.90
32694;DHT22;19084;44.716;10.218;2022-11-20T08:07:50;8.10;99.90
32694;DHT22;19084;44.716;10.218;2022-11-20T08:10:23;8.20;99.90
32694;DHT22;19084;44.716;10.218;2022-11-20T08:12:56;8.20;99.90
32694;DHT22;19084;44.716;10.218;2022-11-20T08:15:49;8.30;99.90
32694;DHT22;19084;44.716;10.218;2022-11-20T08:18:23;8.30;99.90
32694;DHT22;19084;44.716;10.218;2022-11-20T08:21:05;8.40;99.90
32694;DHT22;19084;44.716;10.218;2022-11-20T08:23:38;8.40;99.90
32694;DHT22;19084;44.716;10.218;2022-11-20T08:26:11;8.40;99.90
32694;DHT22;19084;44.716;10.218;2022-11-20T08:28:43;8.50;99.90
32694;DHT22;19084;44.716;10.218;2022-11-20T08:31:16;8.50;99.90
32694;DHT22;19084;44.716;10.218;2022-11-20T08:33:49;8.60;99.90
32694;DHT22;19084;44.716;10.218;2022-11-20T08:36:23;8.60;99.90
32694;DHT22;19084;44.716;10.218;2022-11-20T08:38:56;8.70;99.90
32694;DHT22;19084;44.716;10.218;2022-11-20T08:41:29;8.70;99.90
32694;DHT22;19084;44.716;10.218;2022-11-20T08:44:06;8.80;99.90
32694;DHT22;19084;44.716;10.218;2022-11-20T08:46:41;8.80;99.90
32694;DHT22;19084;44.716;10.218;2022-11-20T08:49:16;8.90;99.90
32694;DHT22;19084;44.716;10.218;2022-11-20T08:51:50;8.90;99.90
32694;DHT22;19084;44.716;10.218;2022-11-20T08:54:26;9.00;99.90
32694;DHT22;19084;44.716;10.218;2022-11-20T08:56:58;9.10;99.90
32694;DHT22;19084;44.716;10.218;2022-11-20T08:59:31;9.20;99.90
32694;DHT22;19084;44.716;10.218;2022-11-20T09:02:24;9.30;99.90
32694;DHT22;19084;44.716;10.218;2022-11-20T09:04:57;9.30;99.90
32694;DHT22;19084;44.716;10.218;2022-11-20T09:07:29;9.40;99.90
32694;DHT22;19084;44.716;10.218;2022-11-20T09:10:02;9.50;99.90
32694;DHT22;19084;44.716;10.218;2022-11-20T09:12:55;9.60;99.90
32694;DHT22;19084;44.716;10.218;2022-11-20T09:15:28;9.70;99.90
32694;DHT22;19084;44.716;10.218;2022-11-20T09:18:02;9.80;99.90
32694;DHT22;19084;44.716;10.218;2022-11-20T09:20:37;9.90;99.90
32694;DHT22;19084;44.716;10.218;2022-11-20T09:23:10;9.90;99.90
32694;DHT22;19084;44.716;10.218;2022-11-20T09:25:43;10.00;99.90
32694;DHT22;19084;44.716;10.218;2022-11-20T09:28:16;10.10;99.90
32694;DHT22;19084;44.716;10.218;2022-11-20T09:30:50;10.20;99.90
32694;DHT22;19084;44.716;10.218;2022-11-20T09:33:24;10.20;99.90
32694;DHT22;19084;44.716;10.218;2022-11-20T09:35:57;10.30;99.90
32694;DHT22;19084;44.716;10.218;2022-11-20T09:38:30;10.40;99.90
32694;DHT22;19084;44.716;10.218;2022-11-20T09:41:05;10.50;99.90
32694;DHT22;19084;44.716;10.218;2022-11-20T09:46:43;10.60;99.90
32694;DHT22;19084;44.716;10.218;2022-11-20T09:54:55;10.70;99.90
32694;DHT22;19084;44.716;10.218;2022-11-20T09:57:32;10.80;99.90
32694;DHT22;19084;44.716;10.218;2022-11-20T10:00:11;10.80;99.90
32694;DHT22;19084;44.716;10.218;2022-11-20T10:03:02;10.80;99.90
32694;DHT22;19084;44.716;10.218;2022-11-20T10:08:19;11.00;99.90
32694;DHT22;19084;44.716;10.218;2022-11-20T10:16:37;11.10;99.90
32694;DHT22;19084;44.716;10.218;2022-11-20T10:19:18;11.20;99.90
32694;DHT22;19084;44.716;10.218;2022-11-20T10:22:04;11.20;99.90
32694;DHT22;19084;44.716;10.218;2022-11-20T10:27:37;11.40;99.90
32694;DHT22;19084;44.716;10.218;2022-11-20T10:30:15;11.40;99.90
32694;DHT22;19084;44.716;10.218;2022-11-20T10:32:53;11.40;99.90
32694;DHT22;19084;44.716;10.218;2022-11-20T10:38:09;11.60;99.90
32694;DHT22;19084;44.716;10.218;2022-11-20T10:40:51;11.60;99.90
32694;DHT22;19084;44.716;10.218;2022-11-20T10:43:32;11.60;99.90
32694;DHT22;19084;44.716;10.218;2022-11-20T10:46:14;11.60;99.90
32694;DHT22;19084;44.716;10.218;2022-11-20T10:48:48;11.70;99.90
32694;DHT22;19084;44.716;10.218;2022-11-20T10:51:40;11.70;99.90
32694;DHT22;19084;44.716;10.218;2022-11-20T10:54:36;11.70;99.90
32694;DHT22;19084;44.716;10.218;2022-11-20T11:00:17;11.90;99.90
32694;DHT22;19084;44.716;10.218;2022-11-20T11:02:53;11.90;99.90
32694;DHT22;19084;44.716;10.218;2022-11-20T11:05:39;12.00;99.90
32694;DHT22;19084;44.716;10.218;2022-11-20T11:08:15;12.00;99.90
32694;DHT22;19084;44.716;10.218;2022-11-20T11:14:05;12.00;99.90
32694;DHT22;19084;44.716;10.218;2022-11-20T11:16:55;12.00;99.90
32694;DHT22;19084;44.716;10.218;2022-11-20T11:19:28;12.00;99.90
32694;DHT22;19084;44.716;10.218;2022-11-20T11:22:11;12.00;99.90
32694;DHT22;19084;44.716;10.218;2022-11-20T11:24:53;12.00;99.90
32694;DHT22;19084;44.716;10.218;2022-11-20T11:27:28;12.00;99.90
32694;DHT22;19084;44.716;10.218;2022-11-20T11:30:12;11.90;99.90
32694;DHT22;19084;44.716;10.218;2022-11-20T11:32:47;12.00;99.90
32694;DHT22;19084;44.716;10.218;2022-11-20T11:35:24;12.10;99.90
32694;DHT22;19084;44.716;10.218;2022-11-20T11:38:14;12.10;99.90
32694;DHT22;19084;44.716;10.218;2022-11-20T11:40:49;12.00;99.90
32694;DHT22;19084;44.716;10.218;2022-11-20T11:43:26;12.10;99.90
32694;DHT22;19084;44.716;10.218;2022-11-20T11:49:08;12.00;99.90
32694;DHT22;19084;44.716;10.218;2022-11-20T11:54:23;12.10;99.90
32694;DHT22;19084;44.716;10.218;2022-11-20T11:57:00;12.00;99.90
32694;DHT22;19084;44.716;10.218;2022-11-20T11:59:51;12.10;99.90
32694;DHT22;19084;44.716;10.218;2022-11-20T12:05:19;12.20;99.90
32694;DHT22;19084;44.716;10.218;2022-11-20T12:10:57;12.20;99.90
32694;DHT22;19084;44.716;10.218;2022-11-20T12:16:13;12.20;99.90
32694;DHT22;19084;44.716;10.218;2022-11-20T12:18:49;12.30;99.90
32694;DHT22;19084;44.716;10.218;2022-11-20T12:21:27;12.30;99.90
32694;DHT22;19084;44.716;10.218;2022-11-20T12:29:59;12.40;99.90
32694;DHT22;19084;44.716;10.218;2022-11-20T12:35:48;12.50;99.90
32694;DHT22;19084;44.716;10.218;2022-11-20T12:41:27;12.50;99.90
32694;DHT22;19084;44.716;10.218;2022-11-20T12:59:19;12.60;99.90
32694;DHT22;19084;44.716;10.218;2022-11-20T13:07:29;12.50;99.90
32694;DHT22;19084;44.716;10.218;2022-11-20T13:10:04;12.60;99.90
32694;DHT22;19084;44.716;10.218;2022-11-20T13:12:51;12.60;99.90
32694;DHT22;19084;44.716;10.218;2022-11-20T13:15:44;12.60;99.90
32694;DHT22;19084;44.716;10.218;2022-11-20T13:18:20;12.70;99.90
32694;DHT22;19084;44.716;10.218;2022-11-20T13:20:53;12.70;99.90
32694;DHT22;19084;44.716;10.218;2022-11-20T13:23:27;12.70;99.90
32694;DHT22;19084;44.716;10.218;2022-11-20T13:26:06;12.70;99.90
32694;DHT22;19084;44.716;10.218;2022-11-20T13:28:40;12.80;99.90
32694;DHT22;19084;44.716;10.218;2022-11-20T13:31:31;12.70;99.90
32694;DHT22;19084;44.716;10.218;2022-11-20T13:34:07;12.70;99.90
32694;DHT22;19084;44.716;10.218;2022-11-20T13:36:53;12.70;99.90
32694;DHT22;19084;44.716;10.218;2022-11-20T13:39:29;12.70;99.90
32694;DHT22;19084;44.716;10.218;2022-11-20T13:42:23;12.60;99.90
32694;DHT22;19084;44.716;10.218;2022-11-20T13:45:08;12.60;99.90
32694;DHT22;19084;44.716;10.218;2022-11-20T13:47:49;12.50;99.90
32694;DHT22;19084;44.716;10.218;2022-11-20T13:50:42;12.50;99.90
32694;DHT22;19084;44.716;10.218;2022-11-20T14:02:11;12.40;99.90
32694;DHT22;19084;44.716;10.218;2022-11-20T14:04:49;12.30;99.90
32694;DHT22;19084;44.716;10.218;2022-11-20T14:07:31;12.30;99.90
32694;DHT22;19084;44.716;10.218;2022-11-20T14:10:05;12.20;99.90
32694;DHT22;19084;44.716;10.218;2022-11-20T14:12:39;12.20;99.90
32694;DHT22;19084;44.716;10.218;2022-11-20T14:15:31;12.20;99.90
32694;DHT22;19084;44.716;10.218;2022-11-20T14:18:20;12.10;99.90
32694;DHT22;19084;44.716;10.218;2022-11-20T14:20:54;12.10;99.90
32694;DHT22;19084;44.716;10.218;2022-11-20T14:23:29;12.10;99.90
32694;DHT22;19084;44.716;10.218;2022-11-20T14:26:01;12.00;99.90
32694;DHT22;19084;44.716;10.218;2022-11-20T14:28:34;12.00;99.90
32694;DHT22;19084;44.716;10.218;2022-11-20T14:31:22;12.00;99.90
32694;DHT22;19084;44.716;10.218;2022-11-20T14:33:56;11.90;99.90
32694;DHT22;19084;44.716;10.218;2022-11-20T14:36:29;11.90;99.90
32694;DHT22;19084;44.716;10.218;2022-11-20T14:39:02;11.90;99.90
32694;DHT22;19084;44.716;10.218;2022-11-20T14:41:35;11.80;99.90
32694;DHT22;19084;44.716;10.218;2022-11-20T14:44:11;11.80;99.90
32694;DHT22;19084;44.716;10.218;2022-11-20T14:46:44;11.80;99.90
32694;DHT22;19084;44.716;10.218;2022-11-20T14:49:18;11.70;99.90
32694;DHT22;19084;44.716;10.218;2022-11-20T14:52:01;11.60;99.90
32694;DHT22;19084;44.716;10.218;2022-11-20T14:54:45;11.60;99.90
32694;DHT22;19084;44.716;10.218;2022-11-20T14:57:34;11.60;99.90
32694;DHT22;19084;44.716;10.218;2022-11-20T15:02:46;11.50;99.90
32694;DHT22;19084;44.716;10.218;2022-11-20T15:05:22;11.50;99.90
32694;DHT22;19084;44.716;10.218;2022-11-20T15:08:07;11.40;99.90
32694;DHT22;19084;44.716;10.218;2022-11-20T15:10:47;11.30;99.90
32694;DHT22;19084;44.716;10.218;2022-11-20T15:13:37;11.30;99.90
32694;DHT22;19084;44.716;10.218;2022-11-20T15:16:18;11.30;99.90
32694;DHT22;19084;44.716;10.218;2022-11-20T15:18:53;11.20;99.90
32694;DHT22;19084;44.716;10.218;2022-11-20T15:21:26;11.20;99.90
32694;DHT22;19084;44.716;10.218;2022-11-20T15:23:59;11.10;99.90
32694;DHT22;19084;44.716;10.218;2022-11-20T15:26:36;11.00;99.90
32694;DHT22;19084;44.716;10.218;2022-11-20T15:29:13;11.00;99.90
32694;DHT22;19084;44.716;10.218;2022-11-20T15:31:47;11.00;99.90
32694;DHT22;19084;44.716;10.218;2022-11-20T15:34:20;10.90;99.90
32694;DHT22;19084;44.716;10.218;2022-11-20T15:36:54;10.90;99.90
32694;DHT22;19084;44.716;10.218;2022-11-20T15:39:28;10.90;99.90
32694;DHT22;19084;44.716;10.218;2022-11-20T15:42:01;10.80;99.90
32694;DHT22;19084;44.716;10.218;2022-11-20T15:44:34;10.70;99.90
32694;DHT22;19084;44.716;10.218;2022-11-20T15:47:07;10.70;99.90
32694;DHT22;19084;44.716;10.218;2022-11-20T15:49:42;10.70;99.90
32694;DHT22;19084;44.716;10.218;2022-11-20T15:52:15;10.60;99.90
32694;DHT22;19084;44.716;10.218;2022-11-20T15:54:48;10.60;99.90
32694;DHT22;19084;44.716;10.218;2022-11-20T15:57:21;10.50;99.90
32694;DHT22;19084;44.716;10.218;2022-11-20T15:59:54;10.40;99.90
32694;DHT22;19084;44.716;10.218;2022-11-20T16:02:28;10.30;99.90
32694;DHT22;19084;44.716;10.218;2022-11-20T16:05:01;10.30;99.90
32694;DHT22;19084;44.716;10.218;2022-11-20T16:07:34;10.20;99.90
32694;DHT22;19084;44.716;10.218;2022-11-20T16:10:07;10.20;99.90
32694;DHT22;19084;44.716;10.218;2022-11-20T16:12:40;10.20;99.90
32694;DHT22;19084;44.716;10.218;2022-11-20T16:15:28;10.10;99.90
32694;DHT22;19084;44.716;10.218;2022-11-20T16:18:19;10.10;99.90
32694;DHT22;19084;44.716;10.218;2022-11-20T16:20:52;10.10;99.90
32694;DHT22;19084;44.716;10.218;2022-11-20T16:23:26;10.00;99.90
32694;DHT22;19084;44.716;10.218;2022-11-20T16:25:59;10.00;99.90
32694;DHT22;19084;44.716;10.218;2022-11-20T16:28:33;9.90;99.90
32694;DHT22;19084;44.716;10.218;2022-11-20T16:31:15;9.80;99.90
32694;DHT22;19084;44.716;10.218;2022-11-20T16:33:54;9.80;99.90
32694;DHT22;19084;44.716;10.218;2022-11-20T16:36:28;9.80;99.90
32694;DHT22;19084;44.716;10.218;2022-11-20T16:39:02;9.70;99.90
32694;DHT22;19084;44.716;10.218;2022-11-20T16:41:36;9.70;99.90
32694;DHT22;19084;44.716;10.218;2022-11-20T16:44:10;9.60;99.90
32694;DHT22;19084;44.716;10.218;2022-11-20T16:46:44;9.60;99.90
32694;DHT22;19084;44.716;10.218;2022-11-20T16:49:17;9.60;99.90
32694;DHT22;19084;44.716;10.218;2022-11-20T16:51:50;9.50;99.90
32694;DHT22;19084;44.716;10.218;2022-11-20T16:54:27;9.50;99.90
32694;DHT22;19084;44.716;10.218;2022-11-20T16:57:00;9.40;99.90
32694;DHT22;19084;44.716;10.218;2022-11-20T16:59:33;9.40;99.90
32694;DHT22;19084;44.716;10.218;2022-11-20T17:02:09;9.40;99.90
32694;DHT22;19084;44.716;10.218;2022-11-20T17:04:43;9.40;99.90
32694;DHT22;19084;44.716;10.218;2022-11-20T17:07:18;9.40;99.90
32694;DHT22;19084;44.716;10.218;2022-11-20T17:09:52;9.30;99.90
32694;DHT22;19084;44.716;10.218;2022-11-20T17:12:25;9.30;99.90
32694;DHT22;19084;44.716;10.218;2022-11-20T17:14:58;9.20;99.90
32694;DHT22;19084;44.716;10.218;2022-11-20T17:17:32;9.10;99.90
32694;DHT22;19084;44.716;10.218;2022-11-20T17:20:06;9.10;99.90
32694;DHT22;19084;44.716;10.218;2022-11-20T17:22:41;9.10;99.90
32694;DHT22;19084;44.716;10.218;2022-11-20T17:25:14;9.10;99.90
32694;DHT22;19084;44.716;10.218;2022-11-20T17:27:46;9.00;99.90
32694;DHT22;19084;44.716;10.218;2022-11-20T17:30:19;9.00;99.90
32694;DHT22;19084;44.716;10.218;2022-11-20T17:32:52;9.00;99.90
32694;DHT22;19084;44.716;10.218;2022-11-20T17:35:25;9.00;99.90
32694;DHT22;19084;44.716;10.218;2022-11-20T17:37:58;9.00;99.90
32694;DHT22;19084;44.716;10.218;2022-11-20T17:40:31;8.90;99.90
32694;DHT22;19084;44.716;10.218;2022-11-20T17:43:03;8.90;99.90
32694;DHT22;19084;44.716;10.218;2022-11-20T17:45:37;8.90;99.90
32694;DHT22;19084;44.716;10.218;2022-11-20T17:48:10;8.90;99.90
32694;DHT22;19084;44.716;10.218;2022-11-20T17:50:44;8.90;99.90